Tropical Cyclones
[Index]
Main Index Home Page Stock Weather Photos Extreme Storms Discussion Storm News and Storm Chasing Reports Tropical Cyclones / Hurricanes / Typhoons Weather Data and Links Wild Fires / Bushfires Weather Observation Techniques Weather Picture Catalogue Tornado Pictures and Reports Stock Video Footage and DVDs for sale
Season 1989-1990 Tropical Cyclone FELICITY Track Map
Season 1989-1990 Summaries: [BoM-AU] [JTWC-AU] [JTWC-SIO] [JTWC-SPAC] [JTWC-SH]
<<- Previous TC | JTWC 1989-1990 Season | Next TC ->>

click for intensity scale information  Lat/long Grid: Show Hide

 Date Labels: Show Hide

Joint Typhoon Warning Centre Cyclone Data

Name: FELICITY

12 Dec 1989 06:00 UTC to 20 Dec 1989 00:00 UTC

    date/time    lat    long     hPa   cat  kts
1989-12-12 06   10.0   132.7                  25          
1989-12-12 12   10.6   132.9                  25          
1989-12-12 18   11.1   133.2                  25          
1989-12-13 00   11.8   133.7                  25          
1989-12-13 06   12.6   134.1                  25          
1989-12-13 12   13.4   134.4                  25          
1989-12-13 18   14.3   134.8                  25          
1989-12-14 00   14.6   135.4                  25          
1989-12-14 06   15.0   136.0                  25          
1989-12-14 12   15.3   136.7                  25          
1989-12-14 18   15.7   137.6                  30          
1989-12-15 00   15.9   138.9            1     50          
1989-12-15 06   16.3   140.5            2     60          
1989-12-15 12   16.7   141.6            2     60          
1989-12-15 18   17.3   142.8            1     45          
1989-12-16 00   17.4   144.0                  30          
1989-12-16 06   17.7   145.3                  25          
1989-12-16 12   17.7   146.6                  35          
1989-12-16 18   17.5   147.8            1     40          
1989-12-17 00   17.0   148.9            1     45          
1989-12-17 06   16.4   149.9            1     50          
1989-12-17 12   16.0   150.9            2     55          
1989-12-17 18   15.6   152.0            1     50          
1989-12-18 00   15.5   153.5            1     45          
1989-12-18 06   16.1   155.0            1     40          
1989-12-18 12   16.9   156.1                  35          
1989-12-18 18   17.7   157.4                  30          
1989-12-19 00   18.3   158.9                  30          
1989-12-19 06   18.8   159.7                  30          
1989-12-19 12   19.3   160.6                  30          
1989-12-19 18   20.4   161.5                  25          
1989-12-20 00   21.7   162.1                  25          
Winds are 1-min average.

Tropical cyclone tracks developed by Michael Bath using data from the Joint Typhoon Warning Centre Best Tracks and Google Maps.


[Australian Severe Weather index] [Copyright Notice] [Email Contacts] [Search This Site] [Privacy Policy]
Document: tropical_cyclone_felicity.htm Updated: 18 September 2016